sensor_id;sensor_type;location;lat;lon;timestamp;temperature;humidity
16700;DHT22;8466;52.286;21.124;2023-02-01T00:01:37;3.50;99.90
16700;DHT22;8466;52.286;21.124;2023-02-01T00:04:06;3.50;99.90
16700;DHT22;8466;52.286;21.124;2023-02-01T00:06:34;3.50;99.90
16700;DHT22;8466;52.286;21.124;2023-02-01T00:09:03;3.50;99.90
16700;DHT22;8466;52.286;21.124;2023-02-01T00:11:31;3.60;99.90
16700;DHT22;8466;52.286;21.124;2023-02-01T00:14:00;3.50;99.90
16700;DHT22;8466;52.286;21.124;2023-02-01T00:16:30;3.50;99.90
16700;DHT22;8466;52.286;21.124;2023-02-01T00:19:03;3.60;99.90
16700;DHT22;8466;52.286;21.124;2023-02-01T00:21:32;3.60;99.90
16700;DHT22;8466;52.286;21.124;2023-02-01T00:24:02;3.60;99.90
16700;DHT22;8466;52.286;21.124;2023-02-01T00:26:33;3.70;99.90
16700;DHT22;8466;52.286;21.124;2023-02-01T00:29:05;3.70;99.90
16700;DHT22;8466;52.286;21.124;2023-02-01T00:31:34;3.70;99.90
16700;DHT22;8466;52.286;21.124;2023-02-01T00:34:04;3.70;99.90
16700;DHT22;8466;52.286;21.124;2023-02-01T00:36:33;3.70;99.90
16700;DHT22;8466;52.286;21.124;2023-02-01T00:39:02;3.70;99.90
16700;DHT22;8466;52.286;21.124;2023-02-01T00:41:31;3.70;99.90
16700;DHT22;8466;52.286;21.124;2023-02-01T00:43:59;3.70;99.90
16700;DHT22;8466;52.286;21.124;2023-02-01T00:46:28;3.70;99.90
16700;DHT22;8466;52.286;21.124;2023-02-01T00:48:57;3.70;99.90
16700;DHT22;8466;52.286;21.124;2023-02-01T00:51:30;3.70;99.90
16700;DHT22;8466;52.286;21.124;2023-02-01T00:53:59;3.80;99.90
16700;DHT22;8466;52.286;21.124;2023-02-01T00:56:28;3.80;99.90
16700;DHT22;8466;52.286;21.124;2023-02-01T00:58:56;3.80;99.90
16700;DHT22;8466;52.286;21.124;2023-02-01T01:01:26;3.80;99.90
16700;DHT22;8466;52.286;21.124;2023-02-01T01:03:58;3.90;99.90
16700;DHT22;8466;52.286;21.124;2023-02-01T01:06:28;3.90;99.90
16700;DHT22;8466;52.286;21.124;2023-02-01T01:09:00;3.90;99.90
16700;DHT22;8466;52.286;21.124;2023-02-01T01:11:31;3.90;99.90
16700;DHT22;8466;52.286;21.124;2023-02-01T01:14:00;3.90;99.90
16700;DHT22;8466;52.286;21.124;2023-02-01T01:16:30;3.80;99.90
16700;DHT22;8466;52.286;21.124;2023-02-01T01:19:00;3.80;99.90
16700;DHT22;8466;52.286;21.124;2023-02-01T01:21:29;3.70;99.90
16700;DHT22;8466;52.286;21.124;2023-02-01T01:23:59;3.70;99.90
16700;DHT22;8466;52.286;21.124;2023-02-01T01:26:29;3.70;99.90
16700;DHT22;8466;52.286;21.124;2023-02-01T01:28:59;3.70;99.90
16700;DHT22;8466;52.286;21.124;2023-02-01T01:31:28;3.60;99.90
16700;DHT22;8466;52.286;21.124;2023-02-01T01:33:58;3.50;99.90
16700;DHT22;8466;52.286;21.124;2023-02-01T01:36:28;3.50;99.90
16700;DHT22;8466;52.286;21.124;2023-02-01T01:38:58;3.50;99.90
16700;DHT22;8466;52.286;21.124;2023-02-01T01:41:29;3.50;99.90
16700;DHT22;8466;52.286;21.124;2023-02-01T01:43:59;3.60;99.90
16700;DHT22;8466;52.286;21.124;2023-02-01T01:46:30;3.60;99.90
16700;DHT22;8466;52.286;21.124;2023-02-01T01:49:05;3.60;99.90
16700;DHT22;8466;52.286;21.124;2023-02-01T01:51:38;3.60;99.90
16700;DHT22;8466;52.286;21.124;2023-02-01T01:54:13;3.60;99.90
16700;DHT22;8466;52.286;21.124;2023-02-01T01:56:48;3.60;99.90
16700;DHT22;8466;52.286;21.124;2023-02-01T01:59:18;3.60;99.90
16700;DHT22;8466;52.286;21.124;2023-02-01T02:01:48;3.60;99.90
16700;DHT22;8466;52.286;21.124;2023-02-01T02:04:17;3.60;99.90
16700;DHT22;8466;52.286;21.124;2023-02-01T02:06:48;3.60;99.90
16700;DHT22;8466;52.286;21.124;2023-02-01T02:09:19;3.60;99.90
16700;DHT22;8466;52.286;21.124;2023-02-01T02:11:48;3.50;99.90
16700;DHT22;8466;52.286;21.124;2023-02-01T02:14:19;3.60;99.90
16700;DHT22;8466;52.286;21.124;2023-02-01T02:16:59;3.60;99.90
16700;DHT22;8466;52.286;21.124;2023-02-01T02:20:02;3.60;99.90
16700;DHT22;8466;52.286;21.124;2023-02-01T02:23:03;3.50;99.90
16700;DHT22;8466;52.286;21.124;2023-02-01T02:32:32;3.30;99.90
16700;DHT22;8466;52.286;21.124;2023-02-01T02:35:13;3.30;99.90
16700;DHT22;8466;52.286;21.124;2023-02-01T02:37:50;3.30;99.90
16700;DHT22;8466;52.286;21.124;2023-02-01T02:40:27;3.30;99.90
16700;DHT22;8466;52.286;21.124;2023-02-01T02:43:05;3.30;99.90
16700;DHT22;8466;52.286;21.124;2023-02-01T02:46:14;3.40;99.90
16700;DHT22;8466;52.286;21.124;2023-02-01T02:49:07;3.40;99.90
16700;DHT22;8466;52.286;21.124;2023-02-01T02:51:44;3.50;99.90
16700;DHT22;8466;52.286;21.124;2023-02-01T02:54:33;3.50;99.90
16700;DHT22;8466;52.286;21.124;2023-02-01T02:57:21;3.50;99.90
16700;DHT22;8466;52.286;21.124;2023-02-01T03:00:11;3.60;99.90
16700;DHT22;8466;52.286;21.124;2023-02-01T03:02:57;3.60;99.90
16700;DHT22;8466;52.286;21.124;2023-02-01T03:05:45;3.60;99.90
16700;DHT22;8466;52.286;21.124;2023-02-01T03:08:17;3.70;99.90
16700;DHT22;8466;52.286;21.124;2023-02-01T03:10:55;3.70;99.90
16700;DHT22;8466;52.286;21.124;2023-02-01T03:13:31;3.70;99.90
16700;DHT22;8466;52.286;21.124;2023-02-01T03:16:04;3.70;99.90
16700;DHT22;8466;52.286;21.124;2023-02-01T03:18:40;3.70;99.90
16700;DHT22;8466;52.286;21.124;2023-02-01T03:21:14;3.70;99.90
16700;DHT22;8466;52.286;21.124;2023-02-01T03:23:47;3.60;99.90
16700;DHT22;8466;52.286;21.124;2023-02-01T03:26:19;3.60;99.90
16700;DHT22;8466;52.286;21.124;2023-02-01T03:28:54;3.60;99.90
16700;DHT22;8466;52.286;21.124;2023-02-01T03:31:24;3.60;99.90
16700;DHT22;8466;52.286;21.124;2023-02-01T03:33:52;3.50;99.90
16700;DHT22;8466;52.286;21.124;2023-02-01T03:36:25;3.40;99.90
16700;DHT22;8466;52.286;21.124;2023-02-01T03:39:01;3.30;99.90
16700;DHT22;8466;52.286;21.124;2023-02-01T03:41:35;3.30;99.90
16700;DHT22;8466;52.286;21.124;2023-02-01T03:44:12;3.40;99.90
16700;DHT22;8466;52.286;21.124;2023-02-01T03:46:47;3.40;99.90
16700;DHT22;8466;52.286;21.124;2023-02-01T03:49:20;3.40;99.90
16700;DHT22;8466;52.286;21.124;2023-02-01T03:51:51;3.20;99.90
16700;DHT22;8466;52.286;21.124;2023-02-01T03:54:22;3.20;99.90
16700;DHT22;8466;52.286;21.124;2023-02-01T03:56:51;3.10;99.90
16700;DHT22;8466;52.286;21.124;2023-02-01T03:59:22;3.10;99.90
16700;DHT22;8466;52.286;21.124;2023-02-01T04:01:51;3.10;99.90
16700;DHT22;8466;52.286;21.124;2023-02-01T04:04:20;3.10;99.90
16700;DHT22;8466;52.286;21.124;2023-02-01T04:06:49;3.10;99.90
16700;DHT22;8466;52.286;21.124;2023-02-01T04:09:18;3.00;99.90
16700;DHT22;8466;52.286;21.124;2023-02-01T04:11:48;2.90;99.90
16700;DHT22;8466;52.286;21.124;2023-02-01T04:14:16;2.90;99.90
16700;DHT22;8466;52.286;21.124;2023-02-01T04:16:45;2.90;99.90
16700;DHT22;8466;52.286;21.124;2023-02-01T04:19:14;2.90;99.90
16700;DHT22;8466;52.286;21.124;2023-02-01T04:21:43;2.90;99.90
16700;DHT22;8466;52.286;21.124;2023-02-01T04:24:12;2.90;99.90
16700;DHT22;8466;52.286;21.124;2023-02-01T04:26:40;3.00;99.90
16700;DHT22;8466;52.286;21.124;2023-02-01T04:29:11;3.00;99.90
16700;DHT22;8466;52.286;21.124;2023-02-01T04:31:40;3.10;99.90
16700;DHT22;8466;52.286;21.124;2023-02-01T04:34:09;3.10;99.90
16700;DHT22;8466;52.286;21.124;2023-02-01T04:36:37;3.10;99.90
16700;DHT22;8466;52.286;21.124;2023-02-01T04:39:06;3.20;99.90
16700;DHT22;8466;52.286;21.124;2023-02-01T04:41:36;3.20;99.90
16700;DHT22;8466;52.286;21.124;2023-02-01T04:44:04;3.30;99.90
16700;DHT22;8466;52.286;21.124;2023-02-01T04:46:35;3.30;99.90
16700;DHT22;8466;52.286;21.124;2023-02-01T04:49:03;3.40;99.90
16700;DHT22;8466;52.286;21.124;2023-02-01T04:51:32;3.40;99.90
16700;DHT22;8466;52.286;21.124;2023-02-01T04:54:00;3.40;99.90
16700;DHT22;8466;52.286;21.124;2023-02-01T04:56:29;3.50;99.90
16700;DHT22;8466;52.286;21.124;2023-02-01T04:58:57;3.50;99.90
16700;DHT22;8466;52.286;21.124;2023-02-01T05:01:29;3.50;99.90
16700;DHT22;8466;52.286;21.124;2023-02-01T05:03:59;3.70;99.90
16700;DHT22;8466;52.286;21.124;2023-02-01T05:06:28;3.50;99.90
16700;DHT22;8466;52.286;21.124;2023-02-01T05:08:57;3.50;99.90
16700;DHT22;8466;52.286;21.124;2023-02-01T05:11:25;3.60;99.90
16700;DHT22;8466;52.286;21.124;2023-02-01T05:14:11;3.60;99.90
16700;DHT22;8466;52.286;21.124;2023-02-01T05:16:40;3.60;99.90
16700;DHT22;8466;52.286;21.124;2023-02-01T05:19:10;3.50;99.90
16700;DHT22;8466;52.286;21.124;2023-02-01T05:21:39;3.50;99.90
16700;DHT22;8466;52.286;21.124;2023-02-01T05:24:08;3.50;99.90
16700;DHT22;8466;52.286;21.124;2023-02-01T05:26:47;3.50;99.90
16700;DHT22;8466;52.286;21.124;2023-02-01T05:29:16;3.50;99.90
16700;DHT22;8466;52.286;21.124;2023-02-01T05:31:46;3.50;99.90
16700;DHT22;8466;52.286;21.124;2023-02-01T05:34:17;3.50;99.90
16700;DHT22;8466;52.286;21.124;2023-02-01T05:36:45;3.50;99.90
16700;DHT22;8466;52.286;21.124;2023-02-01T05:39:14;3.50;99.90
16700;DHT22;8466;52.286;21.124;2023-02-01T05:41:42;3.50;99.90
16700;DHT22;8466;52.286;21.124;2023-02-01T05:44:11;3.50;99.90
16700;DHT22;8466;52.286;21.124;2023-02-01T05:46:40;3.50;99.90
16700;DHT22;8466;52.286;21.124;2023-02-01T05:49:09;3.50;99.90
16700;DHT22;8466;52.286;21.124;2023-02-01T05:51:39;3.40;99.90
16700;DHT22;8466;52.286;21.124;2023-02-01T05:54:08;3.40;99.90
16700;DHT22;8466;52.286;21.124;2023-02-01T05:56:37;3.40;99.90
16700;DHT22;8466;52.286;21.124;2023-02-01T05:59:08;3.50;99.90
16700;DHT22;8466;52.286;21.124;2023-02-01T06:01:37;3.50;99.90
16700;DHT22;8466;52.286;21.124;2023-02-01T06:04:06;3.60;99.90
16700;DHT22;8466;52.286;21.124;2023-02-01T06:06:35;3.50;99.90
16700;DHT22;8466;52.286;21.124;2023-02-01T06:09:05;3.60;99.90
16700;DHT22;8466;52.286;21.124;2023-02-01T06:11:34;3.60;99.90
16700;DHT22;8466;52.286;21.124;2023-02-01T06:14:02;3.70;99.90
16700;DHT22;8466;52.286;21.124;2023-02-01T06:16:31;3.70;99.90
16700;DHT22;8466;52.286;21.124;2023-02-01T06:19:00;3.70;99.90
16700;DHT22;8466;52.286;21.124;2023-02-01T06:21:29;3.70;99.90
16700;DHT22;8466;52.286;21.124;2023-02-01T06:23:58;3.60;99.90
16700;DHT22;8466;52.286;21.124;2023-02-01T06:26:28;3.60;99.90
16700;DHT22;8466;52.286;21.124;2023-02-01T06:28:57;3.70;99.90
16700;DHT22;8466;52.286;21.124;2023-02-01T06:31:26;3.70;99.90
16700;DHT22;8466;52.286;21.124;2023-02-01T06:33:55;3.70;99.90
16700;DHT22;8466;52.286;21.124;2023-02-01T06:36:24;3.60;99.90
16700;DHT22;8466;52.286;21.124;2023-02-01T06:38:52;3.70;99.90
16700;DHT22;8466;52.286;21.124;2023-02-01T06:41:23;3.70;99.90
16700;DHT22;8466;52.286;21.124;2023-02-01T06:43:56;3.70;99.90
16700;DHT22;8466;52.286;21.124;2023-02-01T06:46:25;3.70;99.90
16700;DHT22;8466;52.286;21.124;2023-02-01T06:48:54;3.70;99.90
16700;DHT22;8466;52.286;21.124;2023-02-01T06:51:25;3.80;99.90
16700;DHT22;8466;52.286;21.124;2023-02-01T06:53:55;3.80;99.90
16700;DHT22;8466;52.286;21.124;2023-02-01T06:56:24;3.90;99.90
16700;DHT22;8466;52.286;21.124;2023-02-01T06:58:53;3.90;99.90
16700;DHT22;8466;52.286;21.124;2023-02-01T07:01:24;3.90;99.90
16700;DHT22;8466;52.286;21.124;2023-02-01T07:03:53;3.90;99.90
16700;DHT22;8466;52.286;21.124;2023-02-01T07:06:22;3.90;99.90
16700;DHT22;8466;52.286;21.124;2023-02-01T07:08:51;4.00;99.90
16700;DHT22;8466;52.286;21.124;2023-02-01T07:11:23;3.90;99.90
16700;DHT22;8466;52.286;21.124;2023-02-01T07:13:54;3.90;99.90
16700;DHT22;8466;52.286;21.124;2023-02-01T07:16:24;3.90;99.90
16700;DHT22;8466;52.286;21.124;2023-02-01T07:18:53;3.80;99.90
16700;DHT22;8466;52.286;21.124;2023-02-01T07:21:21;3.90;99.90
16700;DHT22;8466;52.286;21.124;2023-02-01T07:23:50;3.80;99.90
16700;DHT22;8466;52.286;21.124;2023-02-01T07:26:19;3.90;99.90
16700;DHT22;8466;52.286;21.124;2023-02-01T07:28:48;3.80;99.90
16700;DHT22;8466;52.286;21.124;2023-02-01T07:31:18;3.80;99.90
16700;DHT22;8466;52.286;21.124;2023-02-01T07:33:50;3.80;99.90
16700;DHT22;8466;52.286;21.124;2023-02-01T07:36:20;3.90;99.90
16700;DHT22;8466;52.286;21.124;2023-02-01T07:38:49;3.90;99.90
16700;DHT22;8466;52.286;21.124;2023-02-01T07:41:21;3.90;99.90
16700;DHT22;8466;52.286;21.124;2023-02-01T07:43:52;4.10;99.90
16700;DHT22;8466;52.286;21.124;2023-02-01T07:46:21;4.00;99.90
16700;DHT22;8466;52.286;21.124;2023-02-01T07:48:51;4.00;99.90
16700;DHT22;8466;52.286;21.124;2023-02-01T07:51:19;4.00;99.90
16700;DHT22;8466;52.286;21.124;2023-02-01T07:53:48;4.10;99.90
16700;DHT22;8466;52.286;21.124;2023-02-01T07:56:19;4.10;99.90
16700;DHT22;8466;52.286;21.124;2023-02-01T07:58:50;4.10;99.90
16700;DHT22;8466;52.286;21.124;2023-02-01T08:01:20;4.10;99.90
16700;DHT22;8466;52.286;21.124;2023-02-01T08:03:48;4.10;99.90
16700;DHT22;8466;52.286;21.124;2023-02-01T08:06:19;4.10;99.90
16700;DHT22;8466;52.286;21.124;2023-02-01T08:08:49;4.10;99.90
16700;DHT22;8466;52.286;21.124;2023-02-01T08:11:19;4.10;99.90
16700;DHT22;8466;52.286;21.124;2023-02-01T08:13:50;4.20;99.90
16700;DHT22;8466;52.286;21.124;2023-02-01T08:16:20;4.20;99.90
16700;DHT22;8466;52.286;21.124;2023-02-01T08:18:49;4.20;99.90
16700;DHT22;8466;52.286;21.124;2023-02-01T08:21:22;4.30;99.90
16700;DHT22;8466;52.286;21.124;2023-02-01T08:23:51;4.30;99.90
16700;DHT22;8466;52.286;21.124;2023-02-01T08:26:22;4.30;99.90
16700;DHT22;8466;52.286;21.124;2023-02-01T08:28:53;4.30;99.90
16700;DHT22;8466;52.286;21.124;2023-02-01T08:31:23;4.40;99.90
16700;DHT22;8466;52.286;21.124;2023-02-01T08:34:01;4.40;99.90
16700;DHT22;8466;52.286;21.124;2023-02-01T08:36:36;4.40;99.90
16700;DHT22;8466;52.286;21.124;2023-02-01T08:39:09;4.40;99.90
16700;DHT22;8466;52.286;21.124;2023-02-01T08:41:42;4.40;99.90
16700;DHT22;8466;52.286;21.124;2023-02-01T08:44:34;4.50;99.90
16700;DHT22;8466;52.286;21.124;2023-02-01T08:47:03;4.50;99.90
16700;DHT22;8466;52.286;21.124;2023-02-01T08:49:32;4.50;99.90
16700;DHT22;8466;52.286;21.124;2023-02-01T08:52:02;4.60;99.90
16700;DHT22;8466;52.286;21.124;2023-02-01T08:54:41;4.70;99.90
16700;DHT22;8466;52.286;21.124;2023-02-01T08:57:10;4.70;99.90
16700;DHT22;8466;52.286;21.124;2023-02-01T08:59:39;4.70;99.90
16700;DHT22;8466;52.286;21.124;2023-02-01T09:02:09;4.60;99.90
16700;DHT22;8466;52.286;21.124;2023-02-01T09:04:40;4.60;99.90
16700;DHT22;8466;52.286;21.124;2023-02-01T09:07:10;4.60;99.90
16700;DHT22;8466;52.286;21.124;2023-02-01T09:09:40;4.60;99.90
16700;DHT22;8466;52.286;21.124;2023-02-01T09:12:09;4.60;99.90
16700;DHT22;8466;52.286;21.124;2023-02-01T09:14:38;4.60;99.90
16700;DHT22;8466;52.286;21.124;2023-02-01T09:17:07;4.60;99.90
16700;DHT22;8466;52.286;21.124;2023-02-01T09:19:35;4.60;99.90
16700;DHT22;8466;52.286;21.124;2023-02-01T09:22:04;4.50;99.90
16700;DHT22;8466;52.286;21.124;2023-02-01T09:24:34;4.50;99.90
16700;DHT22;8466;52.286;21.124;2023-02-01T09:27:03;4.50;99.90
16700;DHT22;8466;52.286;21.124;2023-02-01T09:29:32;4.60;99.90
16700;DHT22;8466;52.286;21.124;2023-02-01T09:32:00;4.60;99.90
16700;DHT22;8466;52.286;21.124;2023-02-01T09:34:30;4.70;99.90
16700;DHT22;8466;52.286;21.124;2023-02-01T09:36:59;4.90;99.90
16700;DHT22;8466;52.286;21.124;2023-02-01T09:39:28;5.00;99.90
16700;DHT22;8466;52.286;21.124;2023-02-01T09:42:10;5.10;99.90
16700;DHT22;8466;52.286;21.124;2023-02-01T09:44:56;5.10;99.90
16700;DHT22;8466;52.286;21.124;2023-02-01T09:47:28;5.20;99.90
16700;DHT22;8466;52.286;21.124;2023-02-01T09:50:00;5.20;99.90
16700;DHT22;8466;52.286;21.124;2023-02-01T09:52:36;5.20;99.90
16700;DHT22;8466;52.286;21.124;2023-02-01T09:55:13;5.30;99.90
16700;DHT22;8466;52.286;21.124;2023-02-01T09:57:49;5.30;99.90
16700;DHT22;8466;52.286;21.124;2023-02-01T10:00:22;5.30;99.90
16700;DHT22;8466;52.286;21.124;2023-02-01T10:02:54;5.30;99.90
16700;DHT22;8466;52.286;21.124;2023-02-01T10:05:38;5.30;99.90
16700;DHT22;8466;52.286;21.124;2023-02-01T10:08:19;5.20;99.90
16700;DHT22;8466;52.286;21.124;2023-02-01T10:10:57;5.20;99.90
16700;DHT22;8466;52.286;21.124;2023-02-01T10:13:44;5.20;99.90
16700;DHT22;8466;52.286;21.124;2023-02-01T10:16:26;5.20;99.90
16700;DHT22;8466;52.286;21.124;2023-02-01T10:19:13;5.20;99.90
16700;DHT22;8466;52.286;21.124;2023-02-01T10:21:51;5.10;99.90
16700;DHT22;8466;52.286;21.124;2023-02-01T10:24:40;5.10;99.90
16700;DHT22;8466;52.286;21.124;2023-02-01T10:27:13;5.10;99.90
16700;DHT22;8466;52.286;21.124;2023-02-01T10:29:45;5.10;99.90
16700;DHT22;8466;52.286;21.124;2023-02-01T10:32:18;5.20;99.90
16700;DHT22;8466;52.286;21.124;2023-02-01T10:34:51;5.20;99.90
16700;DHT22;8466;52.286;21.124;2023-02-01T10:37:27;5.20;99.90
16700;DHT22;8466;52.286;21.124;2023-02-01T10:39:57;5.30;99.90
16700;DHT22;8466;52.286;21.124;2023-02-01T10:42:28;5.20;99.90
16700;DHT22;8466;52.286;21.124;2023-02-01T10:45:02;5.20;99.90
16700;DHT22;8466;52.286;21.124;2023-02-01T10:47:31;5.20;99.90
16700;DHT22;8466;52.286;21.124;2023-02-01T10:50:13;5.30;99.90
16700;DHT22;8466;52.286;21.124;2023-02-01T10:52:46;5.20;99.90
16700;DHT22;8466;52.286;21.124;2023-02-01T10:55:38;5.20;99.90
16700;DHT22;8466;52.286;21.124;2023-02-01T10:58:14;5.20;99.90
16700;DHT22;8466;52.286;21.124;2023-02-01T11:00:47;5.20;99.90
16700;DHT22;8466;52.286;21.124;2023-02-01T11:03:33;5.10;99.90
16700;DHT22;8466;52.286;21.124;2023-02-01T11:06:08;5.20;99.90
16700;DHT22;8466;52.286;21.124;2023-02-01T11:08:48;5.30;99.90
16700;DHT22;8466;52.286;21.124;2023-02-01T11:11:20;5.40;99.90
16700;DHT22;8466;52.286;21.124;2023-02-01T11:13:55;5.60;99.90
16700;DHT22;8466;52.286;21.124;2023-02-01T11:16:33;5.70;99.90
16700;DHT22;8466;52.286;21.124;2023-02-01T11:19:02;5.70;99.90
16700;DHT22;8466;52.286;21.124;2023-02-01T11:21:31;5.70;99.90
16700;DHT22;8466;52.286;21.124;2023-02-01T11:24:02;5.60;99.90
16700;DHT22;8466;52.286;21.124;2023-02-01T11:26:31;5.50;99.90
16700;DHT22;8466;52.286;21.124;2023-02-01T11:29:03;5.50;99.90
16700;DHT22;8466;52.286;21.124;2023-02-01T11:31:35;5.40;99.90
16700;DHT22;8466;52.286;21.124;2023-02-01T11:34:08;5.40;99.90
16700;DHT22;8466;52.286;21.124;2023-02-01T11:36:39;5.40;99.90
16700;DHT22;8466;52.286;21.124;2023-02-01T11:39:17;5.30;99.90
16700;DHT22;8466;52.286;21.124;2023-02-01T11:41:57;5.30;99.90
16700;DHT22;8466;52.286;21.124;2023-02-01T11:44:31;5.30;99.90
16700;DHT22;8466;52.286;21.124;2023-02-01T11:47:25;5.30;99.90
16700;DHT22;8466;52.286;21.124;2023-02-01T11:49:55;5.30;99.90
16700;DHT22;8466;52.286;21.124;2023-02-01T11:52:48;5.30;99.90
16700;DHT22;8466;52.286;21.124;2023-02-01T11:55:47;5.30;99.90
16700;DHT22;8466;52.286;21.124;2023-02-01T11:58:50;5.30;99.90
16700;DHT22;8466;52.286;21.124;2023-02-01T12:01:40;5.30;99.90
16700;DHT22;8466;52.286;21.124;2023-02-01T12:04:33;5.40;99.90
16700;DHT22;8466;52.286;21.124;2023-02-01T12:07:15;5.40;99.90
16700;DHT22;8466;52.286;21.124;2023-02-01T12:10:00;5.50;99.90
16700;DHT22;8466;52.286;21.124;2023-02-01T12:12:36;5.70;99.90
16700;DHT22;8466;52.286;21.124;2023-02-01T12:15:35;5.80;99.90
16700;DHT22;8466;52.286;21.124;2023-02-01T12:21:58;5.90;99.90
16700;DHT22;8466;52.286;21.124;2023-02-01T12:24:44;5.80;99.90
16700;DHT22;8466;52.286;21.124;2023-02-01T12:27:38;5.70;99.90
16700;DHT22;8466;52.286;21.124;2023-02-01T12:30:33;5.60;99.90
16700;DHT22;8466;52.286;21.124;2023-02-01T12:33:09;5.60;99.90
16700;DHT22;8466;52.286;21.124;2023-02-01T12:35:59;5.60;99.90
16700;DHT22;8466;52.286;21.124;2023-02-01T12:38:44;5.60;99.90
16700;DHT22;8466;52.286;21.124;2023-02-01T12:44:28;5.50;99.90
16700;DHT22;8466;52.286;21.124;2023-02-01T12:47:03;5.50;99.90
16700;DHT22;8466;52.286;21.124;2023-02-01T12:49:44;5.60;99.90
16700;DHT22;8466;52.286;21.124;2023-02-01T12:52:16;5.70;99.90
16700;DHT22;8466;52.286;21.124;2023-02-01T12:54:53;5.80;99.90
16700;DHT22;8466;52.286;21.124;2023-02-01T12:57:26;5.90;99.90
16700;DHT22;8466;52.286;21.124;2023-02-01T13:00:03;6.00;99.90
16700;DHT22;8466;52.286;21.124;2023-02-01T13:02:39;6.10;99.90
16700;DHT22;8466;52.286;21.124;2023-02-01T13:05:16;6.10;99.90
16700;DHT22;8466;52.286;21.124;2023-02-01T13:07:49;6.10;99.90
16700;DHT22;8466;52.286;21.124;2023-02-01T13:10:29;6.20;99.90
16700;DHT22;8466;52.286;21.124;2023-02-01T13:13:04;6.20;99.90
16700;DHT22;8466;52.286;21.124;2023-02-01T13:15:40;6.30;99.90
16700;DHT22;8466;52.286;21.124;2023-02-01T13:18:14;6.50;99.90
16700;DHT22;8466;52.286;21.124;2023-02-01T13:20:50;6.70;99.90
16700;DHT22;8466;52.286;21.124;2023-02-01T13:23:25;6.90;99.90
16700;DHT22;8466;52.286;21.124;2023-02-01T13:25:57;7.20;99.90
16700;DHT22;8466;52.286;21.124;2023-02-01T13:28:28;7.30;99.90
16700;DHT22;8466;52.286;21.124;2023-02-01T13:31:21;7.20;99.90
16700;DHT22;8466;52.286;21.124;2023-02-01T13:34:26;7.00;99.90
16700;DHT22;8466;52.286;21.124;2023-02-01T13:37:10;6.80;99.90
16700;DHT22;8466;52.286;21.124;2023-02-01T13:39:55;6.60;99.90
16700;DHT22;8466;52.286;21.124;2023-02-01T13:42:33;6.40;99.90
16700;DHT22;8466;52.286;21.124;2023-02-01T13:45:05;6.30;99.90
16700;DHT22;8466;52.286;21.124;2023-02-01T13:47:39;6.20;99.90
16700;DHT22;8466;52.286;21.124;2023-02-01T13:50:18;6.10;99.90
16700;DHT22;8466;52.286;21.124;2023-02-01T13:52:53;6.10;99.90
16700;DHT22;8466;52.286;21.124;2023-02-01T13:55:33;6.00;99.90
16700;DHT22;8466;52.286;21.124;2023-02-01T13:58:15;6.00;99.90
16700;DHT22;8466;52.286;21.124;2023-02-01T14:00:45;5.90;99.90
16700;DHT22;8466;52.286;21.124;2023-02-01T14:03:17;5.80;99.90
16700;DHT22;8466;52.286;21.124;2023-02-01T14:06:14;5.70;99.90
16700;DHT22;8466;52.286;21.124;2023-02-01T14:09:13;5.70;99.90
16700;DHT22;8466;52.286;21.124;2023-02-01T14:11:46;5.60;99.90
16700;DHT22;8466;52.286;21.124;2023-02-01T14:14:41;5.50;99.90
16700;DHT22;8466;52.286;21.124;2023-02-01T14:17:34;5.50;99.90
16700;DHT22;8466;52.286;21.124;2023-02-01T14:23:24;5.50;99.90
16700;DHT22;8466;52.286;21.124;2023-02-01T14:26:05;5.40;99.90
16700;DHT22;8466;52.286;21.124;2023-02-01T14:28:40;5.40;99.90
16700;DHT22;8466;52.286;21.124;2023-02-01T14:31:42;5.40;99.90
16700;DHT22;8466;52.286;21.124;2023-02-01T14:34:29;5.40;99.90
16700;DHT22;8466;52.286;21.124;2023-02-01T14:37:01;5.30;99.90
16700;DHT22;8466;52.286;21.124;2023-02-01T14:39:53;5.20;99.90
16700;DHT22;8466;52.286;21.124;2023-02-01T14:42:26;5.10;99.90
16700;DHT22;8466;52.286;21.124;2023-02-01T14:47:53;4.90;99.90
16700;DHT22;8466;52.286;21.124;2023-02-01T14:50:33;4.80;99.90
16700;DHT22;8466;52.286;21.124;2023-02-01T14:53:28;4.70;99.90
16700;DHT22;8466;52.286;21.124;2023-02-01T14:56:00;4.80;99.90
16700;DHT22;8466;52.286;21.124;2023-02-01T14:58:41;4.80;99.90
16700;DHT22;8466;52.286;21.124;2023-02-01T15:01:18;4.80;99.90
16700;DHT22;8466;52.286;21.124;2023-02-01T15:03:55;4.90;99.90
16700;DHT22;8466;52.286;21.124;2023-02-01T15:06:42;4.90;99.90
16700;DHT22;8466;52.286;21.124;2023-02-01T15:09:15;4.90;99.90
16700;DHT22;8466;52.286;21.124;2023-02-01T15:11:56;4.90;99.90
16700;DHT22;8466;52.286;21.124;2023-02-01T15:14:26;4.90;99.90
16700;DHT22;8466;52.286;21.124;2023-02-01T15:16:55;4.90;99.90
16700;DHT22;8466;52.286;21.124;2023-02-01T15:19:27;4.80;99.90
16700;DHT22;8466;52.286;21.124;2023-02-01T15:21:58;4.80;99.90
16700;DHT22;8466;52.286;21.124;2023-02-01T15:24:29;4.70;99.90
16700;DHT22;8466;52.286;21.124;2023-02-01T15:27:04;4.60;99.90
16700;DHT22;8466;52.286;21.124;2023-02-01T15:29:33;4.60;99.90
16700;DHT22;8466;52.286;21.124;2023-02-01T15:32:03;4.50;99.90
16700;DHT22;8466;52.286;21.124;2023-02-01T15:34:48;4.60;99.90
16700;DHT22;8466;52.286;21.124;2023-02-01T15:37:17;4.70;99.90
16700;DHT22;8466;52.286;21.124;2023-02-01T15:40:19;4.80;99.90
16700;DHT22;8466;52.286;21.124;2023-02-01T15:42:52;4.80;99.90
16700;DHT22;8466;52.286;21.124;2023-02-01T15:45:29;4.80;99.90
16700;DHT22;8466;52.286;21.124;2023-02-01T15:48:02;4.80;99.90
16700;DHT22;8466;52.286;21.124;2023-02-01T15:50:34;4.90;99.90
16700;DHT22;8466;52.286;21.124;2023-02-01T15:53:15;4.90;99.90
16700;DHT22;8466;52.286;21.124;2023-02-01T15:55:46;4.90;99.90
16700;DHT22;8466;52.286;21.124;2023-02-01T15:58:21;4.90;99.90
16700;DHT22;8466;52.286;21.124;2023-02-01T16:00:52;4.80;99.90
16700;DHT22;8466;52.286;21.124;2023-02-01T16:03:36;4.80;99.90
16700;DHT22;8466;52.286;21.124;2023-02-01T16:06:08;4.80;99.90
16700;DHT22;8466;52.286;21.124;2023-02-01T16:08:48;4.80;99.90
16700;DHT22;8466;52.286;21.124;2023-02-01T16:11:27;4.80;99.90
16700;DHT22;8466;52.286;21.124;2023-02-01T16:13:58;4.80;99.90
16700;DHT22;8466;52.286;21.124;2023-02-01T16:16:28;4.80;99.90
16700;DHT22;8466;52.286;21.124;2023-02-01T16:18:57;4.80;99.90
16700;DHT22;8466;52.286;21.124;2023-02-01T16:21:27;4.80;99.90
16700;DHT22;8466;52.286;21.124;2023-02-01T16:23:56;4.80;99.90
16700;DHT22;8466;52.286;21.124;2023-02-01T16:26:26;4.80;99.90
16700;DHT22;8466;52.286;21.124;2023-02-01T16:28:55;4.80;99.90
16700;DHT22;8466;52.286;21.124;2023-02-01T16:31:27;4.80;99.90
16700;DHT22;8466;52.286;21.124;2023-02-01T16:33:57;4.80;99.90
16700;DHT22;8466;52.286;21.124;2023-02-01T16:36:27;4.70;99.90
16700;DHT22;8466;52.286;21.124;2023-02-01T16:38:56;4.80;99.90
16700;DHT22;8466;52.286;21.124;2023-02-01T16:41:25;4.70;99.90
16700;DHT22;8466;52.286;21.124;2023-02-01T16:43:55;4.70;99.90
16700;DHT22;8466;52.286;21.124;2023-02-01T16:46:25;4.70;99.90
16700;DHT22;8466;52.286;21.124;2023-02-01T16:48:56;4.70;99.90